createdAt,value
2022-12-27T00:01:31.622Z,101652.63
2022-12-27T00:03:59.047Z,101649.81
2022-12-27T00:06:26.952Z,101653.44
2022-12-27T00:08:55.078Z,101648.31
2022-12-27T00:11:26.292Z,101656.84
2022-12-27T00:13:52.935Z,101652.75
2022-12-27T00:16:20.884Z,101657.13
2022-12-27T00:18:48.157Z,101596.50
2022-12-27T00:21:16.302Z,101641.09
2022-12-27T00:23:44.887Z,101655.38
2022-12-27T00:26:14.975Z,101623.91
2022-12-27T00:28:43.514Z,101653.13
2022-12-27T00:31:10.733Z,101652.09
2022-12-27T00:33:39.233Z,101656.78
2022-12-27T00:36:08.350Z,101663.84
2022-12-27T00:38:35.738Z,101656.22
2022-12-27T00:41:03.087Z,101661.44
2022-12-27T00:43:30.119Z,101660.84
2022-12-27T00:45:58.354Z,101659.91
2022-12-27T00:48:25.343Z,101659.19
2022-12-27T00:50:58.502Z,101659.22
2022-12-27T00:53:27.735Z,101637.28
2022-12-27T00:55:58.964Z,101670.66
2022-12-27T00:58:26.233Z,101672.47
2022-12-27T01:00:53.723Z,101682.09
2022-12-27T01:03:21.854Z,101676.13
2022-12-27T01:05:48.663Z,101678.78
2022-12-27T01:08:15.336Z,101684.72
2022-12-27T01:10:42.116Z,101678.84
2022-12-27T01:13:08.846Z,101644.06
2022-12-27T01:15:35.379Z,101675.50
2022-12-27T01:18:01.983Z,101682.63
2022-12-27T01:20:29.900Z,101679.31
2022-12-27T01:22:56.536Z,101684.38
2022-12-27T01:25:23.388Z,101689.56
2022-12-27T01:27:50.014Z,101683.47
2022-12-27T01:30:16.627Z,101683.44
2022-12-27T01:32:43.246Z,101681.78
2022-12-27T01:35:09.804Z,101677.56
2022-12-27T01:37:37.770Z,101672.69
2022-12-27T01:40:05.434Z,101692.38
2022-12-27T01:42:32.025Z,101687.09
2022-12-27T01:44:58.596Z,101664.25
2022-12-27T01:47:33.048Z,101683.66
2022-12-27T01:50:06.854Z,101677.03
2022-12-27T01:52:37.476Z,101695.03
2022-12-27T01:55:14.022Z,101674.59
2022-12-27T01:57:41.898Z,101685.06
2022-12-27T02:00:10.165Z,101701.97
2022-12-27T02:02:37.459Z,101696.16
2022-12-27T02:05:04.904Z,101701.91
2022-12-27T02:07:38.292Z,101704.28
2022-12-27T02:10:06.951Z,101706.84
2022-12-27T02:12:33.842Z,101702.50
2022-12-27T02:15:00.609Z,101693.69
2022-12-27T02:17:30.611Z,101697.84
2022-12-27T02:20:03.481Z,101639.19
2022-12-27T02:23:03.506Z,101680.25
2022-12-27T02:25:50.548Z,101700.94
2022-12-27T02:28:31.064Z,101711.16
2022-12-27T02:31:04.787Z,101688.91
2022-12-27T02:33:37.050Z,101705.84
2022-12-27T02:36:07.647Z,101708.56
2022-12-27T02:38:37.553Z,101712.88
2022-12-27T02:41:08.069Z,101714.72
2022-12-27T02:43:34.680Z,101715.53
2022-12-27T02:46:10.332Z,101717.25
2022-12-27T02:48:36.956Z,101722.44
2022-12-27T02:51:13.036Z,101725.94
2022-12-27T02:53:50.943Z,101717.25
2022-12-27T02:56:30.180Z,101723.53
2022-12-27T02:59:09.471Z,101699.75
2022-12-27T03:01:49.801Z,101720.25
2022-12-27T03:04:28.440Z,101710.91
2022-12-27T03:07:14.662Z,101723.94
2022-12-27T03:09:49.285Z,101723.13
2022-12-27T03:12:24.775Z,101726.63
2022-12-27T03:14:59.823Z,101727.47
2022-12-27T03:17:35.248Z,101730.06
2022-12-27T03:20:07.293Z,101735.16
2022-12-27T03:22:35.451Z,101737.75
2022-12-27T03:25:04.385Z,101740.31
2022-12-27T03:27:34.628Z,101742.13
2022-12-27T03:30:05.429Z,101745.63
2022-12-27T03:32:36.233Z,101754.19
2022-12-27T03:35:09.636Z,101749.97
2022-12-27T03:37:39.785Z,101748.09
2022-12-27T03:40:10.534Z,101753.31
2022-12-27T03:42:41.841Z,101749.16
2022-12-27T03:45:09.966Z,101710.78
2022-12-27T03:47:47.208Z,101746.53
2022-12-27T03:50:18.779Z,101742.19
2022-12-27T03:52:48.985Z,101715.72
2022-12-27T03:55:17.387Z,101746.41
2022-12-27T03:57:44.304Z,101743.06
2022-12-27T04:00:12.388Z,101749.22
2022-12-27T04:02:44.609Z,101754.50
2022-12-27T04:05:11.804Z,101757.94
2022-12-27T04:07:38.394Z,101763.13
2022-12-27T04:10:05.584Z,101763.97
2022-12-27T04:12:32.257Z,101768.16
2022-12-27T04:14:59.148Z,101765.72
2022-12-27T04:17:25.971Z,101756.31
2022-12-27T04:19:53.929Z,101771.22
2022-12-27T04:22:20.460Z,101765.91
2022-12-27T04:24:47.126Z,101762.59
2022-12-27T04:27:13.628Z,101760.78
2022-12-27T04:29:41.631Z,101759.19
2022-12-27T04:32:08.171Z,101760.00
2022-12-27T04:34:34.765Z,101759.34
2022-12-27T04:37:03.864Z,101757.81
2022-12-27T04:39:30.974Z,101761.34
2022-12-27T04:41:57.613Z,101759.72
2022-12-27T04:44:24.432Z,101753.59
2022-12-27T04:46:51.200Z,101762.31
2022-12-27T04:49:21.926Z,101749.63
2022-12-27T04:51:49.121Z,101772.59
2022-12-27T04:54:18.817Z,101765.78
2022-12-27T04:56:45.318Z,101764.84
2022-12-27T04:59:11.890Z,101768.38
2022-12-27T05:01:39.037Z,101694.00
2022-12-27T05:04:05.657Z,101740.06
2022-12-27T05:06:32.242Z,101768.97
2022-12-27T05:08:58.808Z,101774.84
2022-12-27T05:11:26.886Z,101715.91
2022-12-27T05:13:53.463Z,101754.00
2022-12-27T05:16:20.308Z,101755.50
2022-12-27T05:18:46.901Z,101760.66
2022-12-27T05:21:13.428Z,101754.53
2022-12-27T05:23:40.052Z,101754.44
2022-12-27T05:26:06.641Z,101752.59
2022-12-27T05:28:34.619Z,101761.06
2022-12-27T05:31:02.204Z,101759.31
2022-12-27T05:33:31.133Z,101762.69
2022-12-27T05:35:59.092Z,101748.13
2022-12-27T05:38:25.623Z,101765.06
2022-12-27T05:40:57.563Z,101770.13
2022-12-27T05:43:24.027Z,101769.19
2022-12-27T05:45:52.104Z,101775.28
2022-12-27T05:48:19.064Z,101765.09
2022-12-27T05:50:45.617Z,101782.19
2022-12-27T05:53:12.497Z,101780.34
2022-12-27T05:55:39.292Z,101785.56
2022-12-27T05:58:06.503Z,101784.53
2022-12-27T06:00:33.153Z,101790.66
2022-12-27T06:03:02.265Z,101791.44
2022-12-27T06:05:29.011Z,101793.94
2022-12-27T06:07:55.620Z,101790.41
2022-12-27T06:10:22.152Z,101795.44
2022-12-27T06:12:48.756Z,101804.25
2022-12-27T06:15:15.351Z,101778.53
2022-12-27T06:17:41.903Z,101800.09
2022-12-27T06:20:09.970Z,101797.66
2022-12-27T06:22:36.668Z,101801.03
2022-12-27T06:25:03.305Z,101800.25
2022-12-27T06:27:29.870Z,101808.84
2022-12-27T06:29:56.388Z,101748.41
2022-12-27T06:32:22.999Z,101813.28
2022-12-27T06:34:49.593Z,101810.22
2022-12-27T06:37:17.551Z,101824.91
2022-12-27T06:39:44.118Z,101789.25
2022-12-27T06:42:10.785Z,101831.91
2022-12-27T06:44:37.369Z,101831.16
2022-12-27T06:47:03.919Z,101837.91
2022-12-27T06:49:30.476Z,101835.34
2022-12-27T06:51:59.744Z,101833.63
2022-12-27T06:54:29.128Z,101835.41
2022-12-27T06:56:55.828Z,101831.84
2022-12-27T06:59:22.688Z,101837.00
2022-12-27T07:01:49.292Z,101847.88
2022-12-27T07:04:16.115Z,101851.38
2022-12-27T07:06:42.716Z,101859.75
2022-12-27T07:09:09.227Z,101864.88
2022-12-27T07:11:37.561Z,101851.47
2022-12-27T07:14:07.850Z,101864.72
2022-12-27T07:16:34.940Z,101857.78
2022-12-27T07:19:01.550Z,101856.91
2022-12-27T07:21:29.197Z,101854.22
2022-12-27T07:23:56.627Z,101831.19
2022-12-27T07:26:24.727Z,101831.16
2022-12-27T07:28:54.890Z,101870.41
2022-12-27T07:31:23.068Z,101868.53
2022-12-27T07:33:50.564Z,101871.94
2022-12-27T07:36:18.907Z,101878.88
2022-12-27T07:38:45.540Z,101884.81
2022-12-27T07:41:13.349Z,101891.47
2022-12-27T07:43:40.102Z,101852.03
2022-12-27T07:46:10.827Z,101900.91
2022-12-27T07:48:37.930Z,101887.84
2022-12-27T07:51:04.959Z,101898.19
2022-12-27T07:53:32.240Z,101885.28
2022-12-27T07:55:59.033Z,101879.25
2022-12-27T07:58:25.815Z,101898.41
2022-12-27T08:00:52.658Z,101899.41
2022-12-27T08:03:20.602Z,101894.03
2022-12-27T08:05:47.715Z,101895.81
2022-12-27T08:08:16.575Z,101860.72
2022-12-27T08:10:43.712Z,101892.03
2022-12-27T08:13:10.522Z,101878.31
2022-12-27T08:15:37.966Z,101892.94
2022-12-27T08:18:04.901Z,101862.34
2022-12-27T08:20:33.043Z,101897.13
2022-12-27T08:22:59.634Z,101891.75
2022-12-27T08:25:26.551Z,101889.81
2022-12-27T08:27:53.101Z,101894.09
2022-12-27T08:30:20.072Z,101900.19
2022-12-27T08:32:46.625Z,101901.75
2022-12-27T08:35:42.365Z,101910.38
2022-12-27T08:38:02.229Z,101844.56
2022-12-27T08:40:29.124Z,101846.97
2022-12-27T08:42:55.698Z,101899.00
2022-12-27T08:45:22.425Z,101916.53
2022-12-27T08:47:49.083Z,101914.72
2022-12-27T08:50:15.845Z,101912.09
2022-12-27T08:52:42.769Z,101916.41
2022-12-27T08:55:10.791Z,101910.31
2022-12-27T08:57:37.444Z,101911.91
2022-12-27T09:00:04.849Z,101851.34
2022-12-27T09:02:31.545Z,101901.25
2022-12-27T09:04:58.135Z,101910.34
2022-12-27T09:07:24.968Z,101909.13
2022-12-27T09:09:51.567Z,101919.38
2022-12-27T09:12:21.181Z,101915.69
2022-12-27T09:14:50.460Z,101908.69
2022-12-27T09:17:18.328Z,101926.00
2022-12-27T09:19:44.855Z,101905.03
2022-12-27T09:22:13.967Z,101926.78
2022-12-27T09:24:42.646Z,101932.31
2022-12-27T09:27:09.282Z,101932.19
2022-12-27T09:29:40.419Z,101919.78
2022-12-27T09:32:08.928Z,101935.03
2022-12-27T09:34:35.529Z,101909.09
2022-12-27T09:37:02.131Z,101926.13
2022-12-27T09:39:28.886Z,101927.50
2022-12-27T09:45:16.743Z,101925.97
2022-12-27T09:47:53.107Z,101930.63
2022-12-27T09:50:28.045Z,101931.75
2022-12-27T09:53:02.425Z,101930.53
2022-12-27T09:55:43.236Z,101932.69
2022-12-27T09:58:24.654Z,101928.91
2022-12-27T10:00:59.411Z,101932.75
2022-12-27T10:03:32.970Z,101936.56
2022-12-27T10:06:09.699Z,101938.44
2022-12-27T10:08:47.973Z,101931.53
2022-12-27T10:11:23.215Z,101933.53
2022-12-27T10:13:57.023Z,101928.53
2022-12-27T10:16:32.697Z,101862.13
2022-12-27T10:19:13.716Z,101917.59
2022-12-27T10:21:54.595Z,101912.22
2022-12-27T10:24:26.639Z,101914.63
2022-12-27T10:26:55.243Z,101909.19
2022-12-27T10:29:24.102Z,101898.47
2022-12-27T10:31:52.438Z,101907.50
2022-12-27T10:34:20.929Z,101889.81
2022-12-27T10:36:47.775Z,101903.78
2022-12-27T10:39:18.608Z,101892.16
2022-12-27T10:41:54.144Z,101899.50
2022-12-27T10:44:23.059Z,101899.38
2022-12-27T10:46:54.896Z,101899.28
2022-12-27T10:49:23.558Z,101903.28
2022-12-27T10:51:51.890Z,101895.22
2022-12-27T10:54:22.768Z,101892.84
2022-12-27T10:56:49.666Z,101898.44
2022-12-27T10:59:18.283Z,101884.72
2022-12-27T11:01:48.614Z,101898.97
2022-12-27T11:04:20.963Z,101905.28
2022-12-27T11:06:49.844Z,101907.47
2022-12-27T11:09:26.142Z,101910.91
2022-12-27T11:12:10.107Z,101903.28
2022-12-27T11:14:36.708Z,101911.34
2022-12-27T11:17:08.963Z,101917.28
2022-12-27T11:19:39.818Z,101907.22
2022-12-27T11:22:08.375Z,101909.31
2022-12-27T11:24:35.708Z,101898.47
2022-12-27T11:27:03.734Z,101892.25
2022-12-27T11:29:32.223Z,101890.59
2022-12-27T11:32:06.520Z,101877.94
2022-12-27T11:34:38.517Z,101899.00
2022-12-27T11:37:09.150Z,101905.75
2022-12-27T11:39:41.455Z,101912.19
2022-12-27T11:42:15.168Z,101905.09
2022-12-27T11:44:46.064Z,101883.13
2022-12-27T11:47:22.238Z,101898.25
2022-12-27T11:49:53.717Z,101906.81
2022-12-27T11:52:45.092Z,101913.19
2022-12-27T11:55:27.935Z,101920.69
2022-12-27T11:58:16.565Z,101911.59
2022-12-27T12:00:52.852Z,101910.78
2022-12-27T12:03:48.516Z,101898.19
2022-12-27T12:06:23.176Z,101906.94
2022-12-27T12:12:28.208Z,101900.69
2022-12-27T12:15:33.810Z,101898.34
2022-12-27T12:18:16.959Z,101898.16
2022-12-27T12:21:03.495Z,101891.66
2022-12-27T12:23:50.248Z,101895.53
2022-12-27T12:26:21.196Z,101890.34
2022-12-27T12:29:25.524Z,101887.72
2022-12-27T12:32:12.562Z,101887.00
2022-12-27T12:34:59.011Z,101878.31
2022-12-27T12:37:47.072Z,101869.94
2022-12-27T12:40:37.004Z,101875.34
2022-12-27T12:43:20.633Z,101873.16
2022-12-27T12:46:00.535Z,101876.34
2022-12-27T12:48:48.143Z,101862.34
2022-12-27T12:51:35.732Z,101865.75
2022-12-27T12:54:24.628Z,101858.34
2022-12-27T12:57:08.385Z,101864.19
2022-12-27T13:00:10.523Z,101870.50
2022-12-27T13:03:12.827Z,101858.00
2022-12-27T13:05:45.075Z,101844.47
2022-12-27T13:08:22.078Z,101846.31
2022-12-27T13:11:12.907Z,101849.97
2022-12-27T13:13:55.117Z,101837.69
2022-12-27T13:16:32.936Z,101836.00
2022-12-27T13:19:13.108Z,101833.47
2022-12-27T13:21:58.087Z,101830.38
2022-12-27T13:24:38.256Z,101816.81
2022-12-27T13:27:13.061Z,101801.28
2022-12-27T13:30:01.751Z,101784.28
2022-12-27T13:32:46.597Z,101802.81
2022-12-27T13:35:31.028Z,101816.44
2022-12-27T13:38:12.318Z,101824.81
2022-12-27T13:41:11.000Z,101814.28
2022-12-27T13:43:54.408Z,101815.13
2022-12-27T13:46:57.600Z,101810.28
2022-12-27T13:49:49.073Z,101813.69
2022-12-27T13:52:34.901Z,101796.38
2022-12-27T13:55:44.306Z,101817.63
2022-12-27T13:58:46.188Z,101808.41
2022-12-27T14:01:36.173Z,101806.84
2022-12-27T14:04:47.463Z,101806.25
2022-12-27T14:07:38.582Z,101807.84
2022-12-27T14:10:22.607Z,101797.06
2022-12-27T14:12:55.790Z,101799.47
2022-12-27T14:15:27.330Z,101804.06
2022-12-27T14:18:11.598Z,101798.88
2022-12-27T14:21:03.786Z,101794.09
2022-12-27T14:23:42.444Z,101807.75
2022-12-27T14:26:46.079Z,101800.25
2022-12-27T14:29:39.340Z,101802.28
2022-12-27T14:32:39.221Z,101795.00
2022-12-27T14:35:28.864Z,101804.03
2022-12-27T14:38:18.817Z,101812.13
2022-12-27T14:41:23.179Z,101812.19
2022-12-27T14:44:24.728Z,101805.25
2022-12-27T14:47:30.386Z,101812.88
2022-12-27T14:50:33.158Z,101797.31
2022-12-27T14:53:35.559Z,101798.25
2022-12-27T14:56:18.076Z,101799.31
2022-12-27T14:58:59.133Z,101804.00
2022-12-27T15:01:39.506Z,101801.03
2022-12-27T15:04:34.640Z,101801.13
2022-12-27T15:07:21.484Z,101775.31
2022-12-27T15:09:57.245Z,101793.38
2022-12-27T15:12:30.582Z,101798.81
2022-12-27T15:15:28.443Z,101794.94
2022-12-27T15:18:15.456Z,101798.94
2022-12-27T15:20:57.232Z,101798.44
2022-12-27T15:23:34.206Z,101796.81
2022-12-27T15:26:12.668Z,101809.47
2022-12-27T15:28:54.911Z,101810.47
2022-12-27T15:31:29.637Z,101807.56
2022-12-27T15:34:15.556Z,101802.00
2022-12-27T15:36:43.861Z,101809.63
2022-12-27T15:39:43.997Z,101810.13
2022-12-27T15:42:48.383Z,101816.09
2022-12-27T15:45:32.564Z,101820.72
2022-12-27T15:48:38.321Z,101818.34
2022-12-27T15:51:16.808Z,101811.00
2022-12-27T15:54:19.002Z,101804.88
2022-12-27T15:57:18.246Z,101810.28
2022-12-27T15:59:50.005Z,101794.75
2022-12-27T16:02:28.249Z,101801.97
2022-12-27T16:04:58.284Z,101787.38
2022-12-27T16:07:46.379Z,101789.81
2022-12-27T16:10:36.219Z,101777.88
2022-12-27T16:13:20.976Z,101783.88
2022-12-27T16:15:53.209Z,101782.41
2022-12-27T16:18:54.088Z,101780.03
2022-12-27T16:21:23.504Z,101778.44
2022-12-27T16:23:54.732Z,101782.59
2022-12-27T16:26:23.994Z,101782.75
2022-12-27T16:28:57.061Z,101774.97
2022-12-27T16:31:26.226Z,101776.16
2022-12-27T16:33:55.390Z,101754.81
2022-12-27T16:36:28.732Z,101779.81
2022-12-27T16:39:17.569Z,101775.00
2022-12-27T16:42:02.266Z,101778.88
2022-12-27T16:44:44.910Z,101783.75
2022-12-27T16:47:29.474Z,101757.97
2022-12-27T16:50:25.523Z,101781.03
2022-12-27T16:53:13.518Z,101781.59
2022-12-27T16:56:14.746Z,101783.97
2022-12-27T16:58:41.894Z,101681.56
2022-12-27T17:01:30.284Z,101778.88
2022-12-27T17:03:57.708Z,101778.38
2022-12-27T17:06:53.916Z,101786.50
2022-12-27T17:09:42.060Z,101786.41
2022-12-27T17:12:21.611Z,101787.38
2022-12-27T17:14:52.393Z,101723.94
2022-12-27T17:17:21.272Z,101785.44
2022-12-27T17:19:54.233Z,101783.41
2022-12-27T17:22:21.797Z,101789.13
2022-12-27T17:24:49.538Z,101788.16
2022-12-27T17:27:25.504Z,101785.44
2022-12-27T17:30:06.656Z,101779.91
2022-12-27T17:32:52.645Z,101747.25
2022-12-27T17:35:29.076Z,101778.16
2022-12-27T17:38:11.928Z,101775.06
2022-12-27T17:40:48.681Z,101776.97
2022-12-27T17:43:28.925Z,101764.38
2022-12-27T17:46:11.456Z,101772.78
2022-12-27T17:48:38.521Z,101768.50
2022-12-27T17:51:09.487Z,101768.72
2022-12-27T17:53:45.873Z,101712.03
2022-12-27T17:56:19.066Z,101771.84
2022-12-27T17:58:47.292Z,101742.34
2022-12-27T18:01:14.273Z,101762.06
2022-12-27T18:03:44.334Z,101761.28
2022-12-27T18:06:11.579Z,101754.59
2022-12-27T18:08:39.418Z,101752.44
2022-12-27T18:11:06.445Z,101754.53
2022-12-27T18:13:35.049Z,101759.84
2022-12-27T18:16:11.780Z,101729.63
2022-12-27T18:18:38.668Z,101764.00
2022-12-27T18:21:06.185Z,101758.22
2022-12-27T18:23:39.893Z,101756.66
2022-12-27T18:26:13.489Z,101762.03
2022-12-27T18:28:41.981Z,101733.28
2022-12-27T18:31:14.877Z,101747.72
2022-12-27T18:33:44.236Z,101746.22
2022-12-27T18:36:15.777Z,101754.22
2022-12-27T18:38:45.532Z,101698.16
2022-12-27T18:41:17.203Z,101733.31
2022-12-27T18:43:46.840Z,101709.22
2022-12-27T18:46:17.543Z,101727.72
2022-12-27T18:48:44.459Z,101730.38
2022-12-27T18:51:11.297Z,101716.81
2022-12-27T18:53:38.732Z,101709.22
2022-12-27T18:56:07.107Z,101688.69
2022-12-27T18:58:34.682Z,101703.63
2022-12-27T19:01:03.938Z,101694.78
2022-12-27T19:03:38.262Z,101655.13
2022-12-27T19:06:10.231Z,101697.78
2022-12-27T19:08:38.747Z,101695.41
2022-12-27T19:11:06.518Z,101692.97
2022-12-27T19:13:41.592Z,101691.38
2022-12-27T19:16:19.519Z,101685.47
2022-12-27T19:18:51.291Z,101668.44
2022-12-27T19:21:18.009Z,101676.25
2022-12-27T19:23:44.591Z,101636.22
2022-12-27T19:26:25.207Z,101665.28
2022-12-27T19:29:00.183Z,101671.47
2022-12-27T19:31:27.168Z,101668.22
2022-12-27T19:33:58.455Z,101662.25
2022-12-27T19:36:28.800Z,101658.06
2022-12-27T19:38:55.463Z,101606.25
2022-12-27T19:41:22.008Z,101654.81
2022-12-27T19:43:48.773Z,101642.81
2022-12-27T19:46:15.643Z,101647.38
2022-12-27T19:48:42.218Z,101641.00
2022-12-27T19:51:14.910Z,101639.41
2022-12-27T19:53:43.579Z,101636.81
2022-12-27T19:56:11.582Z,101626.22
2022-12-27T19:58:38.359Z,101605.22
2022-12-27T20:01:05.148Z,101631.00
2022-12-27T20:03:31.774Z,101633.75
2022-12-27T20:06:14.360Z,101638.31
2022-12-27T20:08:49.786Z,101628.75
2022-12-27T20:11:18.245Z,101568.41
2022-12-27T20:13:45.129Z,101619.25
2022-12-27T20:16:13.759Z,101622.00
2022-12-27T20:18:41.151Z,101624.81
2022-12-27T20:21:12.142Z,101622.38
2022-12-27T20:23:38.739Z,101625.03
2022-12-27T20:26:06.722Z,101619.69
2022-12-27T20:28:33.613Z,101620.59
2022-12-27T20:31:05.593Z,101617.31
2022-12-27T20:33:32.048Z,101623.72
2022-12-27T20:35:58.819Z,101614.31
2022-12-27T20:38:26.186Z,101625.41
2022-12-27T20:40:53.031Z,101628.97
2022-12-27T20:43:20.983Z,101595.75
2022-12-27T20:45:48.001Z,101622.16
2022-12-27T20:48:14.961Z,101561.16
2022-12-27T20:50:41.737Z,101606.97
2022-12-27T20:53:09.301Z,101604.34
2022-12-27T20:55:36.105Z,101599.38
2022-12-27T20:58:03.331Z,101575.72
2022-12-27T21:00:31.165Z,101597.72
2022-12-27T21:02:57.878Z,101594.44
2022-12-27T21:05:24.481Z,101585.84
2022-12-27T21:07:51.045Z,101575.75
2022-12-27T21:10:17.594Z,101581.53
2022-12-27T21:12:44.159Z,101584.28
2022-12-27T21:15:10.832Z,101582.53
2022-12-27T21:17:38.787Z,101575.75
2022-12-27T21:20:06.573Z,101571.63
2022-12-27T21:22:33.181Z,101568.13
2022-12-27T21:24:59.704Z,101571.66
2022-12-27T21:27:26.311Z,101569.22
2022-12-27T21:29:52.809Z,101558.78
2022-12-27T21:32:19.417Z,101558.72
2022-12-27T21:34:47.275Z,101527.84
2022-12-27T21:37:13.881Z,101558.59
2022-12-27T21:39:40.663Z,101552.75
2022-12-27T21:42:07.334Z,101553.13
2022-12-27T21:44:33.886Z,101540.97
2022-12-27T21:47:00.496Z,101548.03
2022-12-27T21:49:27.159Z,101546.19
2022-12-27T21:51:55.105Z,101553.31
2022-12-27T21:54:21.694Z,101549.19
2022-12-27T21:56:48.499Z,101544.84
2022-12-27T21:59:15.049Z,101538.78
2022-12-27T22:01:50.731Z,101533.50
2022-12-27T22:04:19.554Z,101534.41
2022-12-27T22:06:47.464Z,101523.97
2022-12-27T22:09:16.128Z,101516.25
2022-12-27T22:11:42.959Z,101514.47
2022-12-27T22:14:10.164Z,101500.34
2022-12-27T22:16:38.618Z,101496.00
2022-12-27T22:19:05.748Z,101492.72
2022-12-27T22:21:33.848Z,101499.69
2022-12-27T22:24:02.067Z,101504.94
2022-12-27T22:26:33.425Z,101489.28
2022-12-27T22:29:00.500Z,101411.63
2022-12-27T22:31:30.475Z,101487.50
2022-12-27T22:33:57.206Z,101487.47
2022-12-27T22:36:25.754Z,101477.97
2022-12-27T22:38:54.752Z,101481.50
2022-12-27T22:41:23.339Z,101473.66
2022-12-27T22:43:53.793Z,101473.72
2022-12-27T22:46:20.504Z,101466.84
2022-12-27T22:48:49.491Z,101462.31
2022-12-27T22:51:18.695Z,101464.09
2022-12-27T22:53:45.562Z,101449.31
2022-12-27T22:56:14.313Z,101452.63
2022-12-27T22:58:41.157Z,101454.31
2022-12-27T23:01:12.216Z,101456.91
2022-12-27T23:03:38.984Z,101446.47
2022-12-27T23:06:05.835Z,101437.13
2022-12-27T23:08:32.477Z,101437.16
2022-12-27T23:11:02.390Z,101431.03
2022-12-27T23:13:29.278Z,101435.28
2022-12-27T23:15:56.460Z,101420.47
2022-12-27T23:18:24.555Z,101399.38
2022-12-27T23:21:20.347Z,101376.00
2022-12-27T23:23:37.829Z,101413.34
2022-12-27T23:26:06.407Z,101397.38
2022-12-27T23:28:35.387Z,101401.81
2022-12-27T23:31:02.425Z,101391.41
2022-12-27T23:33:30.696Z,101378.25
2022-12-27T23:35:57.392Z,101372.41
2022-12-27T23:38:23.998Z,101314.72
2022-12-27T23:40:53.335Z,101354.59
2022-12-27T23:43:51.144Z,101365.22
2022-12-27T23:46:08.617Z,101362.66
2022-12-27T23:48:36.536Z,101357.25
2022-12-27T23:51:03.299Z,101351.16
2022-12-27T23:53:29.864Z,101346.69
2022-12-27T23:55:56.760Z,101336.25
2022-12-27T23:58:23.399Z,101321.41
